• Join FlightAware (Why Join?)
  • Login
  • US Flag 
07:33AM EDT


 

Airport Tracker/Info


-or-


 

Live Flight TrackerFlight Track Log ✈ UAL395 ✈ 16-Jun-2013 ✈ KIAD - KORD

Flight Track Log - Related Links

Times and Time Zones

All times are in EDT time to prevent confusion due to time zone crossing. See the UAL395 flight status page for this flight to view local times or setup timezone preferences in your user account.

Time Position Orientation Groundspeed Altitude Reporting Facility
EDT Latitude Longitude Course Direction KTS MPH feet Rate Location/Type
02:39PM 38.9333 -77.5500 277° West 188 216 2,300  Level Potomac TRACON
02:40PM 38.8792 -77.9544 293° West  Level FlightAware Approximate
02:40PM 38.9000 -77.6167 237° Southwest 228 262 4,700  Level Potomac TRACON
02:40PM 38.8950 -77.6961 265° West 243 280 7,500 3,120 Climbing Washington Center
02:41PM 38.9116 -78.0797 288° West  Level FlightAware Approximate
02:41PM 38.9019 -77.7708 277° West 248 285 10,500  Level Washington Center
02:42PM 38.9500 -78.2012 270° West  Level FlightAware Approximate
02:42PM 38.9150 -77.8594 281° West 268 308 12,200  Level Washington Center
02:43PM 38.9500 -78.3335 270° West  Level FlightAware Approximate
02:43PM 38.9272 -77.9797 277° West 293 337 14,500  Level Washington Center
02:44PM 38.9590 -78.4650 277° West  Level FlightAware Approximate
02:44PM 38.9436 -78.0950 280° West 317 365 16,800  Level Washington Center
02:45PM 38.9600 -78.2106 280° West 325 374 18,800 1,740 Climbing Washington Center
02:46PM 38.9633 -78.3361 272° West 346 398 20,400 1,680 Climbing Washington Center
02:47PM 38.9689 -78.4644 273° West 360 414 22,200 1,560 Climbing Washington Center
02:48PM 38.9739 -78.5981 273° West 367 422 23,600 1,500 Climbing Washington Center
02:49PM 38.9767 -78.7317 272° West 372 428 25,200 1,380 Climbing Washington Center
02:50PM 38.9814 -78.8681 273° West 378 435 26,400 1,200 Climbing Washington Center
02:51PM 38.9839 -79.0072 271° West 388 447 27,700 1,140 Climbing Washington Center
02:52PM 38.9881 -79.1489 272° West 388 447 28,800 1,020 Climbing Washington Center
02:53PM 38.9919 -79.2933 272° West 393 452 29,800 1,020 Climbing Washington Center
02:54PM 38.9936 -79.4378 271° West 405 466 30,900 1,080 Climbing Washington Center
02:55PM 38.9992 -79.5903 273° West 416 479 32,000 1,200 Climbing Washington Center
02:56PM 39.0025 -79.7372 272° West 421 484 33,300 1,260 Climbing Washington Center
02:57PM 39.0036 -79.8817 271° West 421 484 34,500 1,200 Climbing Washington Center
02:58PM 39.0022 -79.9511 269° West 400 460 35,000 960 Climbing Indianapolis Center
02:59PM 39.0039 -80.0936 271° West 395 455 35,900 480 Climbing Indianapolis Center
03:00PM 39.0064 -80.2361 271° West 397 457 36,000  Climbing Indianapolis Center
03:01PM 39.0089 -80.3775 271° West 397 457 36,000  Level Indianapolis Center
03:02PM 39.0100 -80.5208 271° West 400 460 36,000  Level Indianapolis Center
03:03PM 39.0125 -80.6583 271° West 388 447 36,000  Level Indianapolis Center
03:04PM 39.0200 -80.7947 274° West 385 443 36,000  Level Indianapolis Center
03:05PM 39.0597 -80.9231 292° West 389 448 36,000  Level Indianapolis Center
03:06PM 39.1203 -81.0697 298° West 389 448 36,000  Level Indianapolis Center
03:07PM 39.1725 -81.1967 298° West 401 461 36,000  Level Indianapolis Center
03:08PM 39.2258 -81.3239 298° West 403 464 36,000  Level Indianapolis Center
03:10PM 39.2873 -81.4699 299° West  Level FlightAware Approximate
03:10PM 39.3300 -81.5819 299° West 405 466 36,000  Level Indianapolis Center
03:11PM 39.3819 -81.7103 298° West 405 466 36,000  Level Indianapolis Center
03:12PM 39.4442 -81.8656 297° West 406 467 36,000  Level Indianapolis Center
03:13PM 39.4964 -81.9950 298° West 406 467 36,000  Level Indianapolis Center
03:14PM 39.5497 -82.1306 297° West 405 466 36,000  Level Indianapolis Center
03:15PM 39.6031 -82.2633 298° West 411 473 36,000  Level Indianapolis Center
03:16PM 39.6561 -82.3950 298° West 410 472 36,000 -60 Level Indianapolis Center
03:17PM 39.7075 -82.5269 297° West 407 468 35,900 -60 Descending Indianapolis Center
03:18PM 39.7594 -82.6594 297° West 409 471 35,900  Level Indianapolis Center
03:20PM 39.8108 -82.7919 297° West 408 470 35,900  Level Indianapolis Center
03:21PM 39.8717 -82.9464 297° West 409 471 36,000  Climbing Indianapolis Center
03:22PM 39.9225 -83.0786 297° West 407 468 36,000 -60 Level Indianapolis Center
03:23PM 39.9731 -83.2089 297° West 404 465 35,900 -60 Descending Indianapolis Center
03:24PM 40.0231 -83.3383 297° West 401 461 35,900  Level Indianapolis Center
03:25PM 40.0711 -83.4678 296° West 398 458 35,900  Level Indianapolis Center
03:26PM 40.1353 -83.5894 305° West 407 468 35,900  Level Indianapolis Center
03:27PM 40.2103 -83.7300 305° West 403 464 36,000  Climbing Indianapolis Center
03:28PM 40.2750 -83.8492 305° West 399 459 36,000 -60 Level Indianapolis Center
03:29PM 40.3394 -83.9692 305° West 400 460 35,900 -300 Descending Indianapolis Center
03:30PM 40.4039 -84.0892 305° West 400 460 35,500 -720 Descending Indianapolis Center
03:31PM 40.4675 -84.2094 305° West 398 458 34,500 -780 Descending Indianapolis Center
03:32PM 40.5328 -84.3317 305° West 404 465 33,900 -300 Descending Indianapolis Center
03:33PM 40.5967 -84.4542 305° West 404 465 34,000  Climbing Indianapolis Center
03:34PM 40.6717 -84.5953 305° West 399 459 33,900  Descending Indianapolis Center
03:35PM 40.7342 -84.7150 305° West 396 456 34,000  Climbing Indianapolis Center
03:36PM 40.7964 -84.8344 305° West 394 453 33,900  Descending Indianapolis Center
03:37PM 40.8481 -84.9614 298° West 388 447 34,000 -420 Climbing Indianapolis Center
03:38PM 40.9014 -85.0908 299° West 384 442 33,000 -960 Descending Chicago Center
03:39PM 40.9531 -85.2147 299° West 383 441 32,000 -1,020 Descending Chicago Center
03:40PM 41.0053 -85.3442 298° West 392 451 31,000 -1,080 Descending Chicago Center
03:41PM 41.0692 -85.5011 298° West 401 461 29,800 -1,320 Descending Chicago Center
03:42PM 41.1214 -85.6319 298° West 400 460 28,300 -1,560 Descending Chicago Center
03:43PM 41.1711 -85.7536 299° West 377 434 26,600 -1,560 Descending Chicago Center
03:44PM 41.2214 -85.8808 298° West 387 445 25,100 -780 Descending Chicago Center
03:45PM 41.2731 -86.0122 298° West 399 459 25,000 -60 Descending Chicago Center
03:46PM 41.3106 -86.1489 290° West 402 463 25,000 -480 Level Chicago Center
03:47PM 41.3575 -86.2797 296° West 394 453 24,000 -1,560 Descending Chicago Center
03:49PM 41.4133 -86.4350 296° West 388 447 21,800 -2,520 Descending Chicago Center
03:50PM 41.4561 -86.5569 295° West 370 426 18,800 -2,760 Descending Chicago Center
03:51PM 41.4997 -86.6797 295° West 368 423 16,200 -2,520 Descending Chicago Center
03:52PM 41.5597 -86.7806 309° West 363 418 13,700 -2,040 Descending Chicago Center
03:53PM 41.6564 -86.7936 354° North 355 409 12,100 -840 Descending Chicago Center
03:54PM 41.7692 -86.8086 354° North 344 396 12,000 -300 Descending Chicago Center
03:55PM 41.8636 -86.8303 350° North 348 400 11,600 -540 Descending Chicago Center
03:56PM 41.9350 -86.9072 321° Northwest 334 384 11,000 -480 Descending Chicago Center
03:57PM 41.9542 -87.0089 284° West 285 328 10,700 -960 Descending Chicago Center
03:58PM 41.9639 -87.1067 278° West 267 307 9,100 -1,020 Descending Chicago Center
03:59PM 41.9761 -87.2253 278° West 268 308 8,600 -1,020 Descending Chicago Center
04:00PM 41.9836 -87.3225 276° West 265 305 7,100 -780 Descending Chicago Center
04:01PM 41.9831 -87.4181 270° West 261 300 7,000 -300 Descending Chicago Center
04:02PM 41.9825 -87.5136 270° West 260 299 6,500 -960 Descending Chicago Center
04:03PM 41.9822 -87.5961 270° West 229 264 5,000 -1,560 Descending Chicago Center
04:04PM 41.9847 -87.6942 272° West 222 255 3,300 -1,680 Descending Chicago Center